Latest Weather Observations for Braidwood

IDN60901

Issued at 7:01 pm EDT Monday 23 October 2017 (issued every 10 minutes, with the page automatically refreshed every 10 minutes)

About weather observations | Map of Canberra area stations | Latest observations for Canberra area | Other Formats
Station Details ID: 069132 Name: BRAIDWOOD RACECOURSE AWS Lat: -35.43 Lon: 149.78 Height: 665.2 m
Data from the previous 72 hours. | See also: Recent months at Braidwood
Date/Time
EDT
Temp
°C
App
Temp
°C
Dew
Point
°C
Rel
Hum
%
Delta-T
°C
Wind Press
QNH
hPa
Press
MSL
hPa
Rain since
9am
mm
Dir  Spd
km/h
Gust
km/h
Spd
kts
Gust
kts
23/07:00pm 16.8 14.2 7.7 55 4.7 ESE 11 17 6 9 1017.2 1016.4 0.0
23/06:30pm 20.2 17.5 0.6 27 9.1 N 4 11 2 6 1016.7 1015.9 0.0
23/06:00pm 20.7 18.0 0.0 25 9.5 NNE 4 7 2 4 1016.4 1015.6 0.0
23/05:30pm 20.4 17.5 -0.8 24 9.6 ENE 4 7 2 4 1016.3 1015.4 0.0
23/05:00pm 20.5 17.3 -0.2 25 9.5 E 6 13 3 7 1016.2 1015.3 0.0
23/04:30pm 20.1 16.3 -0.5 25 9.4 E 9 17 5 9 1016.2 1015.3 0.0
23/04:00pm 19.9 17.1 -0.7 25 9.3 WNW 4 7 2 4 1016.3 1015.4 0.0
23/03:30pm 20.4 17.6 -0.3 25 9.5 NNE 4 9 2 5 1016.6 1015.8 0.0
23/03:00pm 19.1 15.7 -0.8 26 8.9 ESE 7 13 4 7 1016.8 1016.0 0.0
23/02:30pm 19.0 16.3 0.1 28 8.6 SSE 4 6 2 3 1017.2 1016.4 0.0
23/02:00pm 19.0 15.7 0.1 28 8.6 NW 7 9 4 5 1017.6 1016.7 0.0
23/01:30pm 17.7 14.6 0.4 31 7.8 NE 6 11 3 6 1017.8 1017.0 0.0
23/01:00pm 17.2 14.0 -0.5 30 7.8 E 6 9 3 5 1018.0 1017.2 0.0
23/12:30pm 17.0 13.9 0.2 32 7.5 NNW 6 11 3 6 1018.3 1017.5 0.0
23/12:00pm 15.9 13.3 3.0 42 6.1 NNW 6 13 3 7 1018.7 1017.9 0.0
23/11:30am 15.5 13.5 4.6 48 5.3 NNW 4 11 2 6 1018.8 1018.0 0.0
23/11:00am 14.2 11.6 3.4 48 5.1 W 6 13 3 7 1019.2 1018.4 0.0
23/10:30am 13.7 11.3 4.3 53 4.5 N 6 9 3 5 1019.3 1018.5 0.0
23/10:00am 13.3 11.6 5.9 61 3.6 NE 4 7 2 4 1019.3 1018.5 0.0
23/09:30am 12.1 10.2 4.8 61 3.5 ESE 4 9 2 5 1019.1 1018.3 0.0
23/09:00am 11.1 10.3 6.5 73 2.2 CALM 0 0 0 0 1019.0 1018.2 0.8
23/08:30am 9.0 8.3 7.0 87 1.0 CALM 0 2 0 1 1018.7 1017.9 0.8
23/08:00am 7.3 6.4 6.2 93 0.5 CALM 0 0 0 0 1018.5 1017.7 0.8
23/07:37am 5.6 4.1 5.0 96 0.3 E 2 2 1 1 1018.2 1017.4 0.8
23/07:30am 5.0 3.4 4.4 96 0.3 ESE 2 4 1 2 1018.1 1017.3 0.8
23/07:00am 2.6 0.9 2.0 96 0.2 CALM 0 0 0 0 1017.8 1017.0 0.8
23/06:30am 1.8 -0.8 1.2 96 0.2 SSE 4 4 2 2 1017.6 1016.7 0.8
23/06:00am 1.7 -0.1 1.0 95 0.3 CALM 0 0 0 0 1017.5 1016.6 0.8
23/05:30am 2.5 0.8 1.8 95 0.3 CALM 0 0 0 0 1017.4 1016.5 0.8
23/05:00am 2.8 0.7 1.8 93 0.4 S 2 4 1 2 1017.1 1016.3 0.8
23/04:31am 3.8 2.3 3.1 95 0.3 CALM 0 0 0 0 1016.9 1016.1 0.8
23/04:30am 3.8 2.3 3.1 95 0.3 CALM 0 0 0 0 1016.9 1016.1 0.8
23/04:00am 4.5 3.1 3.6 94 0.4 CALM 0 0 0 0 1016.9 1016.1 0.8
23/03:30am 6.2 5.2 5.6 96 0.3 CALM 0 0 0 0 1016.9 1016.1 0.8
23/03:00am 5.5 4.4 4.9 96 0.3 CALM 0 4 0 2 1017.1 1016.3 0.8
23/02:54am 5.4 4.2 4.8 96 0.3 CALM 0 4 0 2 1017.2 1016.4 0.8
23/02:30am 3.7 2.2 2.8 94 0.4 CALM 0 0 0 0 1017.2 1016.4 0.8
23/02:07am 3.8 2.2 2.6 92 0.5 CALM 0 0 0 0 1017.2 1016.4 0.8
23/02:00am 4.5 3.1 3.6 94 0.4 CALM 0 0 0 0 1017.2 1016.4 0.8
23/01:30am 5.4 4.2 4.4 93 0.4 CALM 0 0 0 0 1017.4 1016.5 0.8
23/01:00am 6.6 5.7 5.9 95 0.3 CALM 0 0 0 0 1017.6 1016.7 0.8
23/12:30am 6.4 4.7 5.7 95 0.3 W 4 6 2 3 1017.7 1016.9 0.8
23/12:00am 6.2 4.3 5.0 92 0.5 WSW 4 6 2 3 1017.7 1016.9 0.8
 
Date/Time
EDT
Temp
°C
App
Temp
°C
Dew
Point
°C
Rel
Hum
%
Delta-T
°C
Wind Press
QNH
hPa
Press
MSL
hPa
Rain since
9am
mm
Dir  Spd
km/h
Gust
km/h
Spd
kts
Gust
kts
22/11:30pm 7.2 6.2 5.7 90 0.7 CALM 0 0 0 0 1017.7 1016.9 0.8
22/11:00pm 8.6 7.9 6.9 89 0.8 CALM 0 0 0 0 1017.7 1016.9 0.8
22/10:30pm 9.3 7.9 7.4 88 0.9 S 4 7 2 4 1017.6 1016.7 0.6
22/10:00pm 9.8 9.0 6.7 81 1.5 CALM 0 0 0 0 1017.4 1016.5 0.4
22/09:30pm 9.4 8.6 6.5 82 1.4 CALM 0 0 0 0 1017.4 1016.5 0.4
22/09:00pm 9.6 8.7 6.1 79 1.7 CALM 0 0 0 0 1016.9 1016.1 0.4
22/08:30pm 10.1 8.0 6.8 80 1.6 ESE 7 11 4 6 1016.5 1015.7 0.4
22/08:00pm 10.0 9.2 6.7 80 1.6 CALM 0 0 0 0 1016.2 1015.3 0.4
22/07:30pm 10.6 8.7 6.9 78 1.8 E 6 9 3 5 1015.6 1014.8 0.2
22/07:00pm 10.9 7.2 6.5 74 2.1 ESE 15 19 8 10 1015.2 1014.4 0.2
22/06:30pm 12.1 8.8 6.2 67 2.9 E 13 20 7 11 1014.8 1013.9 0.0
22/06:00pm 12.5 8.5 6.5 67 3.0 ESE 17 24 9 13 1014.3 1013.4 0.0
22/05:30pm 12.3 7.9 6.6 68 2.8 ESE 19 26 10 14 1013.8 1013.0 0.0
22/05:00pm 13.3 8.7 6.6 64 3.3 ESE 20 26 11 14 1013.5 1012.6 0.0
22/04:30pm 13.6 8.2 6.2 61 3.7 ESE 24 32 13 17 1013.2 1012.3 0.0
22/04:00pm 14.3 9.0 6.9 61 3.7 ESE 24 32 13 17 1013.1 1012.2 0.0
22/03:30pm 14.6 10.0 6.4 58 4.1 E 20 26 11 14 1012.9 1012.0 0.0
22/03:00pm 16.4 11.5 6.8 53 4.9 ESE 22 28 12 15 1012.9 1012.0 0.0
22/02:30pm 15.7 11.5 3.8 45 5.7 SSE 15 20 8 11 1013.3 1012.4 0.0
22/02:00pm 16.1 12.6 1.0 36 6.8 SW 9 17 5 9 1013.3 1012.4 0.0
22/01:30pm 16.4 13.5 2.8 40 6.4 SSE 7 19 4 10 1013.5 1012.6 0.0
22/01:00pm 17.4 14.8 3.0 38 6.9 WNW 6 13 3 7 1013.6 1012.7 0.0
22/12:30pm 15.3 11.9 2.1 41 6.1 SE 9 17 5 9 1014.2 1013.3 0.0
22/12:00pm 15.5 12.7 3.3 44 5.8 W 7 19 4 10 1014.4 1013.5 0.0
22/11:30am 15.3 12.8 3.8 46 5.5 SE 6 9 3 5 1014.6 1013.7 0.0
22/11:00am 14.4 12.2 5.2 54 4.5 ESE 6 11 3 6 1014.8 1013.9 0.0
22/10:30am 13.1 10.6 4.8 57 4.0 SE 7 15 4 8 1015.1 1014.3 0.0
22/10:00am 12.5 10.1 5.4 62 3.4 SSE 7 15 4 8 1015.2 1014.4 0.0
22/09:30am 11.5 9.4 5.6 67 2.8 S 6 11 3 6 1015.5 1014.7 0.0
22/09:00am 10.4 8.9 6.7 78 1.8 W 4 6 2 3 1015.9 1015.0 0.0
22/08:49am 10.2 8.6 6.5 78 1.8 W 4 7 2 4 1015.9 1015.0 0.0
22/08:30am 9.9 8.5 7.2 83 1.3 SW 4 7 2 4 1015.9 1015.0 0.0
22/08:00am 9.1 7.6 6.7 85 1.2 SSW 4 7 2 4 1015.9 1015.0 0.0
22/07:30am 8.7 7.2 6.7 87 1.0 SW 4 6 2 3 1015.6 1014.8 0.0
22/07:00am 8.4 7.7 6.9 90 0.7 CALM 0 0 0 0 1015.4 1014.6 0.0
22/06:30am 8.1 7.3 6.7 91 0.7 CALM 0 0 0 0 1015.3 1014.5 0.0
22/06:00am 7.9 7.2 6.8 93 0.5 CALM 0 0 0 0 1015.2 1014.4 0.0
22/05:30am 7.9 7.2 7.0 94 0.4 CALM 0 0 0 0 1015.0 1014.2 0.0
22/05:00am 7.9 7.2 6.8 93 0.5 CALM 0 0 0 0 1015.1 1014.3 0.0
22/04:30am 7.9 7.2 6.8 93 0.5 CALM 0 0 0 0 1015.4 1014.6 0.0
22/04:00am 7.9 7.1 6.7 92 0.6 CALM 0 0 0 0 1015.6 1014.8 0.0
22/03:30am 8.0 7.2 6.6 91 0.7 CALM 0 0 0 0 1015.9 1015.0 0.0
22/03:00am 8.1 7.2 6.2 88 0.9 CALM 0 0 0 0 1016.2 1015.3 0.0
22/02:30am 8.2 7.3 6.0 86 1.0 CALM 0 0 0 0 1016.5 1015.7 0.0
22/02:05am 8.6 6.8 5.5 81 1.5 SSW 4 7 2 4 1016.7 1015.9 0.0
22/02:00am 8.7 6.9 5.6 81 1.5 S 4 6 2 3 1016.8 1016.0 0.0
22/01:30am 8.7 6.4 5.6 81 1.5 S 7 11 4 6 1017.1 1016.3 0.0
22/01:00am 8.9 7.1 5.6 80 1.6 SSE 4 6 2 3 1017.6 1016.7 0.0
22/12:30am 8.9 7.2 5.8 81 1.5 SSE 4 7 2 4 1017.9 1017.1 0.0
22/12:00am 8.8 6.6 5.5 80 1.5 SE 6 7 3 4 1018.1 1017.3 0.0
 
Date/Time
EDT
Temp
°C
App
Temp
°C
Dew
Point
°C
Rel
Hum
%
Delta-T
°C
Wind Press
QNH
hPa
Press
MSL
hPa
Rain since
9am
mm
Dir  Spd
km/h
Gust
km/h
Spd
kts
Gust
kts
21/11:30pm 8.8 6.6 5.5 80 1.6 ESE 6 7 3 4 1018.4 1017.6 0.0
21/11:00pm 8.8 6.6 5.5 80 1.5 SE 6 9 3 5 1018.5 1017.7 0.0
21/10:30pm 8.7 6.0 5.6 81 1.5 ESE 9 11 5 6 1018.6 1017.8 0.0
21/10:00pm 8.8 6.5 5.9 82 1.4 SE 7 11 4 6 1019.0 1018.2 0.0
21/09:30pm 8.7 6.0 5.6 81 1.5 SE 9 13 5 7 1019.1 1018.3 0.0
21/09:00pm 8.6 5.5 5.5 81 1.5 SE 11 17 6 9 1018.8 1018.0 0.0
21/08:30pm 8.4 5.7 5.5 82 1.4 SE 9 13 5 7 1018.7 1017.9 0.0
21/08:00pm 8.6 6.2 5.2 79 1.6 SE 7 13 4 7 1018.5 1017.7 0.0
21/07:30pm 9.3 5.3 5.1 75 2.0 SE 15 22 8 12 1018.3 1017.5 0.0
21/07:00pm 10.5 6.2 5.1 69 2.5 SE 17 26 9 14 1018.0 1017.2 0.0
21/06:30pm 12.2 7.0 5.4 63 3.3 ESE 22 30 12 16 1017.4 1016.5 0.0
21/06:00pm 13.8 8.3 5.7 58 4.0 ESE 24 30 13 16 1017.0 1016.2 0.0
21/05:30pm 15.4 10.2 5.3 51 5.0 ESE 22 28 12 15 1016.9 1016.1 0.0
21/05:00pm 17.7 14.8 1.7 34 7.4 SE 6 9 3 5 1017.0 1016.2 0.0
21/04:30pm 17.2 13.6 0.8 33 7.5 ENE 9 19 5 10 1017.2 1016.4 0.0
21/04:00pm 17.2 14.9 0.4 32 7.6 N 2 9 1 5 1017.7 1016.9 0.0
21/03:30pm 17.0 14.5 1.4 35 7.2 ENE 4 13 2 7 1018.2 1017.4 0.0
21/03:00pm 16.5 13.7 1.8 37 6.8 NE 6 13 3 7 1018.7 1017.9 0.0
21/02:30pm 15.6 12.9 0.2 35 6.8 SW 4 9 2 5 1019.3 1018.5 0.0
21/02:00pm 14.9 11.2 0.0 36 6.5 E 9 17 5 9 1019.8 1019.0 0.0
21/01:30pm 14.7 12.0 0.2 37 6.4 SE 4 9 2 5 1020.3 1019.6 0.0
21/01:00pm 13.9 11.3 1.2 42 5.6 E 4 13 2 7 1020.6 1019.8 0.0
21/12:30pm 13.3 10.4 1.3 44 5.3 SE 6 9 3 5 1021.2 1020.4 0.0
21/12:00pm 12.7 9.7 0.5 43 5.3 SE 6 13 3 7 1021.7 1021.0 0.0
21/11:30am 12.3 8.4 1.3 47 4.8 ESE 11 19 6 10 1022.2 1021.4 0.0
21/11:00am 11.5 7.9 0.6 47 4.7 ESE 9 17 5 9 1022.3 1021.5 0.0
21/10:30am 10.9 7.9 1.7 53 4.0 SSE 7 15 4 8 1022.6 1021.8 0.0
21/10:00am 10.4 7.5 2.5 58 3.5 E 7 15 4 8 1022.7 1021.9 0.0
21/09:30am 9.5 6.5 1.7 58 3.4 SSE 7 13 4 7 1022.8 1022.0 0.0
21/09:00am 8.2 5.5 2.9 69 2.3 SSW 6 11 3 6 1022.9 1022.2 0.4
21/08:30am 7.2 4.2 4.3 82 1.3 SW 9 11 5 6 1023.0 1022.3 0.4
21/08:00am 6.2 3.6 4.2 87 0.9 WSW 7 9 4 5 1023.0 1022.3 0.4
21/07:30am 5.5 4.1 3.7 88 0.8 CALM 0 6 0 3 1022.9 1022.2 0.4
21/07:00am 4.5 2.7 3.5 93 0.4 SE 2 6 1 3 1022.9 1022.2 0.4
21/06:30am 3.3 0.9 2.0 91 0.5 SW 4 6 2 3 1022.9 1022.2 0.4
21/06:29am 3.3 0.9 2.0 91 0.5 SW 4 6 2 3 1022.9 1022.2 0.4
21/06:00am 5.4 4.2 4.4 93 0.4 CALM 0 4 0 2 1022.9 1022.2 0.4
21/05:30am 5.0 2.5 3.8 92 0.5 SW 6 6 3 3 1022.9 1022.2 0.4
21/05:00am 5.9 4.7 4.5 91 0.6 CALM 0 0 0 0 1022.9 1022.2 0.4
21/04:30am 5.9 4.7 4.7 92 0.5 CALM 0 0 0 0 1022.9 1022.2 0.4
21/04:00am 5.5 4.3 4.5 93 0.4 CALM 0 0 0 0 1023.1 1022.4 0.4
21/03:30am 5.5 3.1 4.5 93 0.4 S 6 6 3 3 1023.4 1022.7 0.4
21/03:00am 5.2 3.1 3.9 91 0.6 SSE 4 6 2 3 1023.6 1022.9 0.4
21/02:59am 5.2 3.1 3.9 91 0.6 SSE 4 6 2 3 1023.5 1022.8 0.4
21/02:30am 5.5 3.0 3.8 89 0.7 ESE 6 7 3 4 1023.9 1023.1 0.4
21/02:00am 6.9 4.5 5.4 90 0.7 SE 7 9 4 5 1024.3 1023.6 0.4
21/01:30am 7.9 5.4 6.4 90 0.7 ESE 9 13 5 7 1024.7 1024.0 0.4
21/01:00am 8.0 5.4 6.3 89 0.8 SE 9 13 5 7 1025.0 1024.3 0.4
21/12:30am 8.5 6.1 6.8 89 0.8 SE 9 13 5 7 1025.1 1024.4 0.4
21/12:00am 8.7 6.7 7.0 89 0.8 SE 7 11 4 6 1025.2 1024.5 0.4
 
Date/Time
EDT
Temp
°C
App
Temp
°C
Dew
Point
°C
Rel
Hum
%
Delta-T
°C
Wind Press
QNH
hPa
Press
MSL
hPa
Rain since
9am
mm
Dir  Spd
km/h
Gust
km/h
Spd
kts
Gust
kts
20/11:30pm 8.7 7.3 7.3 91 0.7 SSE 4 6 2 3 1025.4 1024.6 0.4
20/11:00pm 8.6 6.7 7.4 92 0.6 SSE 7 13 4 7 1025.2 1024.5 0.4
20/10:56pm 8.5 6.1 7.1 91 0.7 SE 9 15 5 8 1025.2 1024.5 0.4
20/10:30pm 8.8 6.6 7.7 93 0.5 SE 9 13 5 7 1025.2 1024.5 0.2
20/10:00pm 9.1 7.3 8.0 93 0.5 SE 7 13 4 7 1025.4 1024.6 0.2
20/09:37pm 9.3 7.1 7.9 91 0.7 SSE 9 13 5 7 1025.2 1024.5 0.2
20/09:30pm 9.4 7.6 7.8 90 0.8 SSE 7 11 4 6 1025.2 1024.5 0.2
20/09:00pm 9.4 6.9 8.2 92 0.6 SE 11 15 6 8 1025.1 1024.4 0.2
20/08:34pm 9.4 6.9 8.2 92 0.6 ESE 11 15 6 8 1025.0 1024.3 0.2
20/08:30pm 9.4 6.9 8.2 92 0.6 ESE 11 17 6 9 1025.0 1024.3 0.2
20/08:00pm 9.3 6.9 8.5 95 0.4 ESE 11 17 6 9 1024.4 1023.7 0.2
20/07:30pm 9.5 7.1 8.6 94 0.5 ESE 11 17 6 9 1024.2 1023.5 0.0

Latest Capital City Observations: Canberra | Sydney | Melbourne | Brisbane | Adelaide | Perth | Hobart | Darwin

Other Formats:

Comma delimited format used in spreadsheet applications
http://www.bom.gov.au/fwo/IDN60903/IDN60903.94927.axf

JavaScript Object Notation format (JSON) in row-major order
http://www.bom.gov.au/fwo/IDN60903/IDN60903.94927.json